createdAt,value
2022-10-01T00:00:28.263Z,982.23
2022-10-01T00:01:28.369Z,982.29
2022-10-01T00:02:28.318Z,982.25
2022-10-01T00:03:28.246Z,982.25
2022-10-01T00:04:28.243Z,982.21
2022-10-01T00:05:28.215Z,982.23
2022-10-01T00:06:28.829Z,982.23
2022-10-01T00:07:28.186Z,982.23
2022-10-01T00:08:28.190Z,982.19
2022-10-01T00:09:28.176Z,982.18
2022-10-01T00:10:28.163Z,982.14
2022-10-01T00:11:28.149Z,982.15
2022-10-01T00:12:28.829Z,982.09
2022-10-01T00:13:28.142Z,982.07
2022-10-01T00:14:28.116Z,982.11
2022-10-01T00:15:28.104Z,982.07
2022-10-01T00:16:28.165Z,982.06
2022-10-01T00:17:28.084Z,982.03
2022-10-01T00:18:28.092Z,981.99
2022-10-01T00:19:28.088Z,981.96
2022-10-01T00:20:28.076Z,981.92
2022-10-01T00:21:28.049Z,981.95
2022-10-01T00:22:28.033Z,981.83
2022-10-01T00:23:28.040Z,981.86
2022-10-01T00:24:28.016Z,981.92
2022-10-01T00:25:27.997Z,981.81
2022-10-01T00:26:27.994Z,981.82
2022-10-01T00:27:27.979Z,981.79
2022-10-01T00:28:28.089Z,981.78
2022-10-01T00:29:27.960Z,981.80
2022-10-01T00:30:27.944Z,981.82
2022-10-01T00:31:28.008Z,981.74
2022-10-01T00:32:27.931Z,981.74
2022-10-01T00:33:27.934Z,981.75
2022-10-01T00:34:27.909Z,981.71
2022-10-01T00:35:27.896Z,981.69
2022-10-01T00:36:27.910Z,981.74
2022-10-01T00:37:27.875Z,981.64
2022-10-01T00:38:27.881Z,981.65
2022-10-01T00:39:27.851Z,981.64
2022-10-01T00:40:27.845Z,981.65
2022-10-01T00:41:27.837Z,981.59
2022-10-01T00:42:27.840Z,981.63
2022-10-01T00:43:27.812Z,981.61
2022-10-01T00:44:27.820Z,981.62
2022-10-01T00:45:27.880Z,981.53
2022-10-01T00:46:27.780Z,981.56
2022-10-01T00:47:28.342Z,981.44
2022-10-01T00:48:28.350Z,981.45
2022-10-01T00:49:27.764Z,981.60
2022-10-01T00:50:27.738Z,981.44
2022-10-01T00:51:27.725Z,981.44
2022-10-01T00:52:28.362Z,981.45
2022-10-01T00:53:27.707Z,981.47
2022-10-01T00:54:27.711Z,981.44
2022-10-01T00:55:28.346Z,981.44
2022-10-01T00:56:27.677Z,981.47
2022-10-01T00:57:27.669Z,981.48
2022-10-01T00:58:27.657Z,981.36
2022-10-01T00:59:27.660Z,981.43
2022-10-01T01:00:27.641Z,981.38
2022-10-01T01:01:27.830Z,981.36
2022-10-01T01:02:27.679Z,981.37
2022-10-01T01:03:27.602Z,981.39
2022-10-01T01:04:27.657Z,981.33
2022-10-01T01:05:27.598Z,981.33
2022-10-01T01:06:27.569Z,981.40
2022-10-01T01:07:27.559Z,981.34
2022-10-01T01:08:27.579Z,981.33
2022-10-01T01:09:27.560Z,981.32
2022-10-01T01:10:27.527Z,981.31
2022-10-01T01:11:27.517Z,981.32
2022-10-01T01:12:27.510Z,981.30
2022-10-01T01:13:27.499Z,981.23
2022-10-01T01:14:27.501Z,981.28
2022-10-01T01:15:27.476Z,981.22
2022-10-01T01:16:28.352Z,981.24
2022-10-01T01:17:27.455Z,981.18
2022-10-01T01:18:28.349Z,981.18
2022-10-01T01:19:27.454Z,981.18
2022-10-01T01:20:27.427Z,981.16
2022-10-01T01:21:27.413Z,981.07
2022-10-01T01:22:27.402Z,981.06
2022-10-01T01:23:27.394Z,981.09
2022-10-01T01:24:27.427Z,981.09
2022-10-01T01:25:27.372Z,981.07
2022-10-01T01:26:27.367Z,981.04
2022-10-01T01:27:27.353Z,980.98
2022-10-01T01:28:27.440Z,980.96
2022-10-01T01:29:27.348Z,980.97
2022-10-01T01:30:27.319Z,980.95
2022-10-01T01:31:27.369Z,980.94
2022-10-01T01:32:27.850Z,980.89
2022-10-01T01:33:27.316Z,980.92
2022-10-01T01:34:27.279Z,980.98
2022-10-01T01:35:27.283Z,981.00
2022-10-01T01:36:27.257Z,980.95
2022-10-01T01:37:27.255Z,980.92
2022-10-01T01:38:27.238Z,980.96
2022-10-01T01:39:27.229Z,980.94
2022-10-01T01:40:27.310Z,981.00
2022-10-01T01:41:27.204Z,980.97
2022-10-01T01:42:27.220Z,981.08
2022-10-01T01:43:27.853Z,981.00
2022-10-01T01:44:27.176Z,981.02
2022-10-01T01:45:27.236Z,981.02
2022-10-01T01:46:27.152Z,980.96
2022-10-01T01:47:27.143Z,981.02
2022-10-01T01:48:27.134Z,981.00
2022-10-01T01:49:27.124Z,980.97
2022-10-01T01:50:27.124Z,980.96
2022-10-01T01:51:27.099Z,980.98
2022-10-01T01:52:27.089Z,980.97
2022-10-01T01:53:27.080Z,980.98
2022-10-01T01:54:27.067Z,980.97
2022-10-01T01:55:27.074Z,980.98
2022-10-01T01:56:27.876Z,980.91
2022-10-01T01:57:27.037Z,980.91
2022-10-01T01:58:27.025Z,980.89
2022-10-01T01:59:27.029Z,980.94
2022-10-01T02:00:27.008Z,980.95
2022-10-01T02:01:27.036Z,980.92
2022-10-01T02:02:27.016Z,980.93
2022-10-01T02:03:26.976Z,980.94
2022-10-01T02:04:27.002Z,980.97
2022-10-01T02:05:26.962Z,980.91
2022-10-01T02:06:26.944Z,980.90
2022-10-01T02:07:26.933Z,980.86
2022-10-01T02:08:26.923Z,980.89
2022-10-01T02:09:26.939Z,980.93
2022-10-01T02:10:26.902Z,980.90
2022-10-01T02:11:27.864Z,980.88
2022-10-01T02:12:26.905Z,980.91
2022-10-01T02:13:26.872Z,980.84
2022-10-01T02:14:26.897Z,980.85
2022-10-01T02:15:26.850Z,980.88
2022-10-01T02:16:26.972Z,980.78
2022-10-01T02:17:26.831Z,980.81
2022-10-01T02:18:26.822Z,980.77
2022-10-01T02:19:26.824Z,980.82
2022-10-01T02:20:27.372Z,980.79
2022-10-01T02:21:26.788Z,980.80
2022-10-01T02:22:27.365Z,980.73
2022-10-01T02:23:26.766Z,980.75
2022-10-01T02:24:26.767Z,980.69
2022-10-01T02:25:26.748Z,980.67
2022-10-01T02:26:26.737Z,980.69
2022-10-01T02:27:26.734Z,980.74
2022-10-01T02:28:26.813Z,980.71
2022-10-01T02:29:26.719Z,980.67
2022-10-01T02:30:26.693Z,980.68
2022-10-01T02:31:26.745Z,980.65
2022-10-01T02:32:26.797Z,980.68
2022-10-01T02:33:26.667Z,980.67
2022-10-01T02:34:26.677Z,980.65
2022-10-01T02:35:26.645Z,980.71
2022-10-01T02:36:26.631Z,980.75
2022-10-01T02:37:26.625Z,980.75
2022-10-01T02:38:26.609Z,980.67
2022-10-01T02:39:26.618Z,980.67
2022-10-01T02:40:26.592Z,980.66
2022-10-01T02:41:26.584Z,980.64
2022-10-01T02:42:26.568Z,980.72
2022-10-01T02:43:26.562Z,980.69
2022-10-01T02:44:26.584Z,980.69
2022-10-01T02:45:26.751Z,980.68
2022-10-01T02:46:26.563Z,980.64
2022-10-01T02:47:26.520Z,980.65
2022-10-01T02:48:26.504Z,980.58
2022-10-01T02:49:30.535Z,980.64
2022-10-01T02:50:26.500Z,980.56
2022-10-01T02:51:26.475Z,980.52
2022-10-01T02:52:26.469Z,980.53
2022-10-01T02:53:26.454Z,980.54
2022-10-01T02:54:26.445Z,980.49
2022-10-01T02:55:26.453Z,980.46
2022-10-01T02:56:26.423Z,980.45
2022-10-01T02:57:26.414Z,980.43
2022-10-01T02:58:26.406Z,980.45
2022-10-01T02:59:26.396Z,980.45
2022-10-01T03:00:26.419Z,980.41
2022-10-01T03:01:26.445Z,980.33
2022-10-01T03:02:26.445Z,980.37
2022-10-01T03:03:26.355Z,980.31
2022-10-01T03:04:26.340Z,980.36
2022-10-01T03:05:26.353Z,980.34
2022-10-01T03:06:26.320Z,980.29
2022-10-01T03:07:26.317Z,980.30
2022-10-01T03:08:26.301Z,980.21
2022-10-01T03:09:26.289Z,980.21
2022-10-01T03:10:26.289Z,980.20
2022-10-01T03:11:26.277Z,980.19
2022-10-01T03:12:26.256Z,980.20
2022-10-01T03:13:26.265Z,980.16
2022-10-01T03:14:26.250Z,980.13
2022-10-01T03:15:26.228Z,980.11
2022-10-01T03:16:26.273Z,980.07
2022-10-01T03:17:26.212Z,980.05
2022-10-01T03:18:26.195Z,980.05
2022-10-01T03:19:26.204Z,980.05
2022-10-01T03:20:26.176Z,979.99
2022-10-01T03:21:26.176Z,980.02
2022-10-01T03:22:26.155Z,980.01
2022-10-01T03:23:26.146Z,979.92
2022-10-01T03:24:26.131Z,979.95
2022-10-01T03:25:26.142Z,979.96
2022-10-01T03:26:26.113Z,979.94
2022-10-01T03:27:26.122Z,979.96
2022-10-01T03:28:26.158Z,980.02
2022-10-01T03:29:26.091Z,979.99
2022-10-01T03:30:26.096Z,979.96
2022-10-01T03:31:26.080Z,979.92
2022-10-01T03:32:26.072Z,979.89
2022-10-01T03:33:26.053Z,979.91
2022-10-01T03:34:26.035Z,979.92
2022-10-01T03:35:26.040Z,979.96
2022-10-01T03:36:26.042Z,979.92
2022-10-01T03:37:26.005Z,979.91
2022-10-01T03:38:25.992Z,979.94
2022-10-01T03:39:25.988Z,979.91
2022-10-01T03:40:25.988Z,979.91
2022-10-01T03:41:25.962Z,979.85
2022-10-01T03:42:25.951Z,979.84
2022-10-01T03:43:25.946Z,979.81
2022-10-01T03:44:25.932Z,979.75
2022-10-01T03:45:25.973Z,979.71
2022-10-01T03:46:25.908Z,979.77
2022-10-01T03:47:25.893Z,979.72
2022-10-01T03:48:25.903Z,979.72
2022-10-01T03:49:25.876Z,979.68
2022-10-01T03:50:25.882Z,979.75
2022-10-01T03:51:25.861Z,979.71
2022-10-01T03:52:25.848Z,979.66
2022-10-01T03:53:25.836Z,979.71
2022-10-01T03:54:25.820Z,979.62
2022-10-01T03:55:25.824Z,979.54
2022-10-01T03:56:25.803Z,979.59
2022-10-01T03:57:25.793Z,979.57
2022-10-01T03:58:25.777Z,979.57
2022-10-01T03:59:25.770Z,979.53
2022-10-01T04:00:25.770Z,979.47
2022-10-01T04:01:25.792Z,979.51
2022-10-01T04:02:25.849Z,979.41
2022-10-01T04:03:25.729Z,979.39
2022-10-01T04:04:25.742Z,979.34
2022-10-01T04:05:25.730Z,979.43
2022-10-01T04:06:25.701Z,979.37
2022-10-01T04:07:25.688Z,979.27
2022-10-01T04:08:25.678Z,979.27
2022-10-01T04:09:25.667Z,979.33
2022-10-01T04:10:25.672Z,979.27
2022-10-01T04:11:25.665Z,979.43
2022-10-01T04:12:25.642Z,979.31
2022-10-01T04:13:25.653Z,979.18
2022-10-01T04:14:25.661Z,979.27
2022-10-01T04:15:25.626Z,979.23
2022-10-01T04:16:25.720Z,979.17
2022-10-01T04:17:25.614Z,979.17
2022-10-01T04:18:25.580Z,979.21
2022-10-01T04:19:25.579Z,979.25
2022-10-01T04:20:25.593Z,979.29
2022-10-01T04:21:25.551Z,979.27
2022-10-01T04:22:25.534Z,979.27
2022-10-01T04:23:25.524Z,979.35
2022-10-01T04:24:25.522Z,979.31
2022-10-01T04:25:25.524Z,979.31
2022-10-01T04:26:25.500Z,979.24
2022-10-01T04:27:25.490Z,979.41
2022-10-01T04:28:25.562Z,979.45
2022-10-01T04:29:25.473Z,979.48
2022-10-01T04:30:25.472Z,979.56
2022-10-01T04:31:25.666Z,979.52
2022-10-01T04:32:25.436Z,979.39
2022-10-01T04:33:25.434Z,979.39
2022-10-01T04:34:25.416Z,979.49
2022-10-01T04:35:25.439Z,979.55
2022-10-01T04:36:25.412Z,979.45
2022-10-01T04:37:25.396Z,979.44
2022-10-01T04:38:25.376Z,979.44
2022-10-01T04:39:25.362Z,979.46
2022-10-01T04:40:25.351Z,979.52
2022-10-01T04:41:25.363Z,979.46
2022-10-01T04:42:25.330Z,979.44
2022-10-01T04:43:25.321Z,979.35
2022-10-01T04:44:25.311Z,979.31
2022-10-01T04:45:25.311Z,979.35
2022-10-01T04:46:25.376Z,979.43
2022-10-01T04:47:25.292Z,979.40
2022-10-01T04:48:25.278Z,979.34
2022-10-01T04:49:25.261Z,979.40
2022-10-01T04:50:25.260Z,979.35
2022-10-01T04:51:25.282Z,979.33
2022-10-01T04:52:25.247Z,979.38
2022-10-01T04:53:25.225Z,979.34
2022-10-01T04:54:25.208Z,979.28
2022-10-01T04:55:25.209Z,979.33
2022-10-01T04:56:25.207Z,979.22
2022-10-01T04:57:25.202Z,979.22
2022-10-01T04:58:25.170Z,979.22
2022-10-01T04:59:25.158Z,979.16
2022-10-01T05:00:25.167Z,979.10
2022-10-01T05:01:25.266Z,979.07
2022-10-01T05:02:25.177Z,979.07
2022-10-01T05:03:25.126Z,979.06
2022-10-01T05:04:25.102Z,979.03
2022-10-01T05:05:25.103Z,979.11
2022-10-01T05:06:25.166Z,978.99
2022-10-01T05:07:25.075Z,978.93
2022-10-01T05:08:25.083Z,978.90
2022-10-01T05:09:25.107Z,978.95
2022-10-01T05:10:25.054Z,978.97
2022-10-01T05:11:25.047Z,979.01
2022-10-01T05:12:25.021Z,979.03
2022-10-01T05:13:25.007Z,979.07
2022-10-01T05:14:25.001Z,979.11
2022-10-01T05:15:25.012Z,979.12
2022-10-01T05:16:25.026Z,979.15
2022-10-01T05:17:24.969Z,979.13
2022-10-01T05:18:24.961Z,979.21
2022-10-01T05:19:27.990Z,979.20
2022-10-01T05:20:24.934Z,979.12
2022-10-01T05:21:24.939Z,979.14
2022-10-01T05:22:24.915Z,979.11
2022-10-01T05:23:24.908Z,979.18
2022-10-01T05:24:24.923Z,979.14
2022-10-01T05:25:24.882Z,979.11
2022-10-01T05:26:24.913Z,979.11
2022-10-01T05:27:24.867Z,979.10
2022-10-01T05:28:24.942Z,979.04
2022-10-01T05:29:24.843Z,978.98
2022-10-01T05:30:24.831Z,979.03
2022-10-01T05:31:24.915Z,979.01
2022-10-01T05:32:24.815Z,979.04
2022-10-01T05:33:24.805Z,979.02
2022-10-01T05:34:24.787Z,979.06
2022-10-01T05:35:24.778Z,978.97
2022-10-01T05:36:24.788Z,978.98
2022-10-01T05:37:24.760Z,978.93
2022-10-01T05:38:24.766Z,978.90
2022-10-01T05:39:24.745Z,978.89
2022-10-01T05:40:24.750Z,978.87
2022-10-01T05:41:24.722Z,978.94
2022-10-01T05:42:24.727Z,978.93
2022-10-01T05:43:24.705Z,978.86
2022-10-01T05:44:24.703Z,978.84
2022-10-01T05:45:24.766Z,978.81
2022-10-01T05:46:24.662Z,978.80
2022-10-01T05:47:24.671Z,978.77
2022-10-01T05:48:24.645Z,978.77
2022-10-01T05:49:24.642Z,978.84
2022-10-01T05:50:24.666Z,978.79
2022-10-01T05:51:24.619Z,978.77
2022-10-01T05:52:24.619Z,978.70
2022-10-01T05:53:24.596Z,978.70
2022-10-01T05:54:24.585Z,978.68
2022-10-01T05:55:24.581Z,978.63
2022-10-01T05:56:24.582Z,978.62
2022-10-01T05:57:24.571Z,978.64
2022-10-01T05:58:24.542Z,978.76
2022-10-01T05:59:28.416Z,978.84
2022-10-01T06:00:25.524Z,978.73
2022-10-01T06:01:24.517Z,978.77
2022-10-01T06:02:24.667Z,978.66
2022-10-01T06:03:24.527Z,978.63
2022-10-01T06:04:24.480Z,978.74
2022-10-01T06:05:24.470Z,978.87
2022-10-01T06:06:24.458Z,978.89
2022-10-01T06:07:24.461Z,978.85
2022-10-01T06:08:24.437Z,978.97
2022-10-01T06:09:24.436Z,978.86
2022-10-01T06:10:24.421Z,978.82
2022-10-01T06:11:24.405Z,978.82
2022-10-01T06:12:24.496Z,978.91
2022-10-01T06:13:24.385Z,978.83
2022-10-01T06:14:24.376Z,978.72
2022-10-01T06:15:24.373Z,978.76
2022-10-01T06:16:24.402Z,978.68
2022-10-01T06:17:24.358Z,978.62
2022-10-01T06:18:24.350Z,978.79
2022-10-01T06:19:24.323Z,978.55
2022-10-01T06:20:24.313Z,978.75
2022-10-01T06:21:24.308Z,978.64
2022-10-01T06:22:26.242Z,978.57
2022-10-01T06:23:24.290Z,978.58
2022-10-01T06:24:24.275Z,978.57
2022-10-01T06:25:24.267Z,978.55
2022-10-01T06:26:24.257Z,978.56
2022-10-01T06:27:24.253Z,978.68
2022-10-01T06:28:24.302Z,978.58
2022-10-01T06:29:24.223Z,978.64
2022-10-01T06:30:24.212Z,978.59
2022-10-01T06:31:24.259Z,978.59
2022-10-01T06:32:24.207Z,978.54
2022-10-01T06:33:24.180Z,978.69
2022-10-01T06:34:24.171Z,978.66
2022-10-01T06:35:24.162Z,978.79
2022-10-01T06:36:24.899Z,978.71
2022-10-01T06:37:24.147Z,978.75
2022-10-01T06:38:24.122Z,978.68
2022-10-01T06:39:24.113Z,978.65
2022-10-01T06:40:24.101Z,978.74
2022-10-01T06:41:24.100Z,978.76
2022-10-01T06:42:24.094Z,978.75
2022-10-01T06:43:24.096Z,978.73
2022-10-01T06:44:24.085Z,978.75
2022-10-01T06:45:24.053Z,978.72
2022-10-01T06:46:24.151Z,978.57
2022-10-01T06:47:24.044Z,978.63
2022-10-01T06:48:24.022Z,978.67
2022-10-01T06:49:24.010Z,978.73
2022-10-01T06:50:23.998Z,978.83
2022-10-01T06:51:23.995Z,978.85
2022-10-01T06:52:23.998Z,978.77
2022-10-01T06:53:23.979Z,978.68
2022-10-01T06:54:23.958Z,978.70
2022-10-01T06:55:23.946Z,978.53
2022-10-01T06:56:23.943Z,978.57
2022-10-01T06:57:23.938Z,978.63
2022-10-01T06:58:24.059Z,978.54
2022-10-01T06:59:23.920Z,978.69
2022-10-01T07:00:23.932Z,978.65
2022-10-01T07:01:23.920Z,978.65
2022-10-01T07:02:23.976Z,978.60
2022-10-01T07:03:23.865Z,978.53
2022-10-01T07:04:23.873Z,978.50
2022-10-01T07:05:23.853Z,978.46
2022-10-01T07:06:23.834Z,978.44
2022-10-01T07:07:27.056Z,978.45
2022-10-01T07:08:24.820Z,978.51
2022-10-01T07:09:23.825Z,978.56
2022-10-01T07:10:23.803Z,978.62
2022-10-01T07:11:23.789Z,978.66
2022-10-01T07:12:23.797Z,978.70
2022-10-01T07:13:23.847Z,978.63
2022-10-01T07:14:23.747Z,978.64
2022-10-01T07:15:23.841Z,978.64
2022-10-01T07:16:23.794Z,978.64
2022-10-01T07:17:23.733Z,978.62
2022-10-01T07:18:23.710Z,978.65
2022-10-01T07:19:23.696Z,978.68
2022-10-01T07:20:23.694Z,978.66
2022-10-01T07:21:23.675Z,978.52
2022-10-01T07:22:23.665Z,978.53
2022-10-01T07:23:23.745Z,978.63
2022-10-01T07:24:23.644Z,978.56
2022-10-01T07:25:23.632Z,978.55
2022-10-01T07:26:23.637Z,978.52
2022-10-01T07:27:23.627Z,978.63
2022-10-01T07:28:23.639Z,978.53
2022-10-01T07:29:23.590Z,978.57
2022-10-01T07:30:23.645Z,978.54
2022-10-01T07:31:23.650Z,978.61
2022-10-01T07:32:23.583Z,978.52
2022-10-01T07:33:23.573Z,978.58
2022-10-01T07:34:23.542Z,978.61
2022-10-01T07:35:23.594Z,978.68
2022-10-01T07:36:23.525Z,978.68
2022-10-01T07:37:23.519Z,978.60
2022-10-01T07:38:23.518Z,978.65
2022-10-01T07:39:23.497Z,978.70
2022-10-01T07:40:23.559Z,978.58
2022-10-01T07:41:23.469Z,978.63
2022-10-01T07:42:23.459Z,978.67
2022-10-01T07:43:23.464Z,978.60
2022-10-01T07:44:23.436Z,978.68
2022-10-01T07:45:23.426Z,978.63
2022-10-01T07:46:23.425Z,978.67
2022-10-01T07:47:23.408Z,978.79
2022-10-01T07:48:23.432Z,978.85
2022-10-01T07:49:23.387Z,978.80
2022-10-01T07:50:23.448Z,978.75
2022-10-01T07:51:23.365Z,978.74
2022-10-01T07:52:23.357Z,978.75
2022-10-01T07:53:23.413Z,978.82
2022-10-01T07:54:23.337Z,978.67
2022-10-01T07:55:23.319Z,978.75
2022-10-01T07:56:23.321Z,978.77
2022-10-01T07:57:23.308Z,978.73
2022-10-01T07:58:23.305Z,978.71
2022-10-01T07:59:23.283Z,978.69
2022-10-01T08:00:23.362Z,978.78
2022-10-01T08:01:23.292Z,978.82
2022-10-01T08:02:23.351Z,978.84
2022-10-01T08:03:23.264Z,978.89
2022-10-01T08:04:23.252Z,978.78
2022-10-01T08:05:23.214Z,978.83
2022-10-01T08:06:25.550Z,978.78
2022-10-01T08:07:23.200Z,978.79
2022-10-01T08:08:23.203Z,978.83
2022-10-01T08:09:23.176Z,978.81
2022-10-01T08:10:23.242Z,978.84
2022-10-01T08:11:23.164Z,978.85
2022-10-01T08:12:23.154Z,978.88
2022-10-01T08:13:23.159Z,978.89
2022-10-01T08:14:23.127Z,978.94
2022-10-01T08:15:23.117Z,978.93
2022-10-01T08:16:23.143Z,978.98
2022-10-01T08:17:27.271Z,979.01
2022-10-01T08:18:24.116Z,979.01
2022-10-01T08:19:23.070Z,979.07
2022-10-01T08:20:23.201Z,979.02
2022-10-01T08:21:23.049Z,979.02
2022-10-01T08:22:23.045Z,979.01
2022-10-01T08:23:23.041Z,978.95
2022-10-01T08:24:23.020Z,978.93
2022-10-01T08:25:23.009Z,978.93
2022-10-01T08:26:23.002Z,978.84
2022-10-01T08:27:22.987Z,978.84
2022-10-01T08:28:23.049Z,978.83
2022-10-01T08:29:22.968Z,978.94
2022-10-01T08:30:22.962Z,978.90
2022-10-01T08:31:23.021Z,978.90
2022-10-01T08:32:22.936Z,978.90
2022-10-01T08:33:22.941Z,978.90
2022-10-01T08:34:22.916Z,978.98
2022-10-01T08:35:22.911Z,978.98
2022-10-01T08:36:22.920Z,978.98
2022-10-01T08:37:22.881Z,979.03
2022-10-01T08:38:22.890Z,979.03
2022-10-01T08:39:22.873Z,979.11
2022-10-01T08:40:22.853Z,979.09
2022-10-01T08:41:23.470Z,979.02
2022-10-01T08:42:22.836Z,979.13
2022-10-01T08:43:22.820Z,979.07
2022-10-01T08:44:22.830Z,979.10
2022-10-01T08:45:22.807Z,979.16
2022-10-01T08:46:22.789Z,979.11
2022-10-01T08:47:22.778Z,979.19
2022-10-01T08:48:22.770Z,979.17
2022-10-01T08:49:22.772Z,979.13
2022-10-01T08:50:22.754Z,979.14
2022-10-01T08:51:22.743Z,979.13
2022-10-01T08:52:22.747Z,979.14
2022-10-01T08:53:22.718Z,979.17
2022-10-01T08:54:22.718Z,979.17
2022-10-01T08:55:22.694Z,979.11
2022-10-01T08:56:22.806Z,979.15
2022-10-01T08:57:22.672Z,979.27
2022-10-01T08:58:22.667Z,979.20
2022-10-01T08:59:27.190Z,979.22
2022-10-01T09:00:22.647Z,979.22
2022-10-01T09:01:22.706Z,979.18
2022-10-01T09:02:22.624Z,979.22
2022-10-01T09:03:22.633Z,979.25
2022-10-01T09:04:22.622Z,979.15
2022-10-01T09:05:22.594Z,979.17
2022-10-01T09:06:22.581Z,979.19
2022-10-01T09:07:22.572Z,979.18
2022-10-01T09:08:22.655Z,979.17
2022-10-01T09:09:22.553Z,979.24
2022-10-01T09:10:22.540Z,979.25
2022-10-01T09:11:22.531Z,979.23
2022-10-01T09:12:22.529Z,979.17
2022-10-01T09:13:22.523Z,979.21
2022-10-01T09:14:22.498Z,979.24
2022-10-01T09:15:22.505Z,979.25
2022-10-01T09:16:22.573Z,979.27
2022-10-01T09:17:22.477Z,979.13
2022-10-01T09:18:22.482Z,979.20
2022-10-01T09:19:22.447Z,979.24
2022-10-01T09:20:22.493Z,979.24
2022-10-01T09:21:22.431Z,979.26
2022-10-01T09:22:22.413Z,979.20
2022-10-01T09:23:22.411Z,979.19
2022-10-01T09:24:22.433Z,979.26
2022-10-01T09:25:22.391Z,979.17
2022-10-01T09:26:25.612Z,979.17
2022-10-01T09:27:22.368Z,979.24
2022-10-01T09:28:22.417Z,979.24
2022-10-01T09:29:22.361Z,979.32
2022-10-01T09:30:22.334Z,979.18
2022-10-01T09:31:22.441Z,979.21
2022-10-01T09:32:22.309Z,979.21
2022-10-01T09:33:22.303Z,979.16
2022-10-01T09:34:22.310Z,979.32
2022-10-01T09:35:22.298Z,979.26
2022-10-01T09:36:22.273Z,979.28
2022-10-01T09:37:22.259Z,979.29
2022-10-01T09:38:22.251Z,979.21
2022-10-01T09:39:22.255Z,979.29
2022-10-01T09:40:22.340Z,979.27
2022-10-01T09:41:22.252Z,979.31
2022-10-01T09:42:22.209Z,979.28
2022-10-01T09:43:22.203Z,979.20
2022-10-01T09:44:22.200Z,979.26
2022-10-01T09:45:22.177Z,979.24
2022-10-01T09:46:22.243Z,979.33
2022-10-01T09:47:22.156Z,979.28
2022-10-01T09:48:22.150Z,979.28
2022-10-01T09:49:22.158Z,979.33
2022-10-01T09:50:22.125Z,979.31
2022-10-01T09:51:22.126Z,979.23
2022-10-01T09:52:22.107Z,979.25
2022-10-01T09:53:22.092Z,979.33
2022-10-01T09:54:22.150Z,979.38
2022-10-01T09:55:22.072Z,979.30
2022-10-01T09:56:22.092Z,979.39
2022-10-01T09:57:22.057Z,979.36
2022-10-01T09:58:22.071Z,979.35
2022-10-01T09:59:22.049Z,979.36
2022-10-01T10:00:22.021Z,979.40
2022-10-01T10:01:22.044Z,979.38
2022-10-01T10:02:22.248Z,979.39
2022-10-01T10:03:22.172Z,979.39
2022-10-01T10:04:22.000Z,979.34
2022-10-01T10:05:21.973Z,979.40
2022-10-01T10:06:21.962Z,979.40
2022-10-01T10:07:21.952Z,979.38
2022-10-01T10:08:22.007Z,979.38
2022-10-01T10:09:21.954Z,979.35
2022-10-01T10:10:25.504Z,979.42
2022-10-01T10:11:21.909Z,979.42
2022-10-01T10:12:21.916Z,979.40
2022-10-01T10:13:21.888Z,979.37
2022-10-01T10:14:21.891Z,979.42
2022-10-01T10:15:21.870Z,979.41
2022-10-01T10:16:21.954Z,979.46
2022-10-01T10:17:21.846Z,979.51
2022-10-01T10:18:24.098Z,979.43
2022-10-01T10:19:21.841Z,979.50
2022-10-01T10:20:21.813Z,979.59
2022-10-01T10:21:21.828Z,979.64
2022-10-01T10:22:21.793Z,979.69
2022-10-01T10:23:21.782Z,979.70
2022-10-01T10:24:21.787Z,979.74
2022-10-01T10:25:21.780Z,979.65
2022-10-01T10:26:21.758Z,979.72
2022-10-01T10:27:21.747Z,979.64
2022-10-01T10:28:21.779Z,979.66
2022-10-01T10:29:21.723Z,979.63
2022-10-01T10:30:21.724Z,979.65
2022-10-01T10:31:21.804Z,979.67
2022-10-01T10:32:21.704Z,979.69
2022-10-01T10:33:21.682Z,979.67
2022-10-01T10:34:21.705Z,979.63
2022-10-01T10:35:21.663Z,979.64
2022-10-01T10:36:21.653Z,979.63
2022-10-01T10:37:21.640Z,979.64
2022-10-01T10:38:21.629Z,979.59
2022-10-01T10:39:21.633Z,979.60
2022-10-01T10:40:25.714Z,979.65
2022-10-01T10:41:22.598Z,979.68
2022-10-01T10:42:21.597Z,979.66
2022-10-01T10:43:21.576Z,979.72
2022-10-01T10:44:21.626Z,979.67
2022-10-01T10:45:21.563Z,979.69
2022-10-01T10:46:21.666Z,979.70
2022-10-01T10:47:21.538Z,979.62
2022-10-01T10:48:21.527Z,979.65
2022-10-01T10:49:21.528Z,979.64
2022-10-01T10:50:21.505Z,979.63
2022-10-01T10:51:21.514Z,979.64
2022-10-01T10:52:21.491Z,979.61
2022-10-01T10:53:21.473Z,979.59
2022-10-01T10:54:21.476Z,979.60
2022-10-01T10:55:21.451Z,979.56
2022-10-01T10:56:21.445Z,979.60
2022-10-01T10:57:21.485Z,979.58
2022-10-01T10:58:21.420Z,979.59
2022-10-01T10:59:21.427Z,979.53
2022-10-01T11:00:21.423Z,979.51
2022-10-01T11:01:21.445Z,979.51
2022-10-01T11:02:21.461Z,979.56
2022-10-01T11:03:21.403Z,979.57
2022-10-01T11:04:21.357Z,979.52
2022-10-01T11:05:21.364Z,979.48
2022-10-01T11:06:21.337Z,979.55
2022-10-01T11:07:21.329Z,979.53
2022-10-01T11:08:21.316Z,979.52
2022-10-01T11:09:21.312Z,979.57
2022-10-01T11:10:21.314Z,979.56
2022-10-01T11:11:21.290Z,979.65
2022-10-01T11:12:21.274Z,979.58
2022-10-01T11:13:21.271Z,979.66
2022-10-01T11:14:23.649Z,979.58
2022-10-01T11:15:21.290Z,979.63
2022-10-01T11:16:21.317Z,979.55
2022-10-01T11:17:21.344Z,979.57
2022-10-01T11:18:21.218Z,979.57
2022-10-01T11:19:21.206Z,979.57
2022-10-01T11:20:21.441Z,979.60
2022-10-01T11:21:21.186Z,979.61
2022-10-01T11:22:21.174Z,979.49
2022-10-01T11:23:21.164Z,979.50
2022-10-01T11:24:21.149Z,979.47
2022-10-01T11:25:21.158Z,979.58
2022-10-01T11:26:21.140Z,979.51
2022-10-01T11:27:21.196Z,979.47
2022-10-01T11:28:21.143Z,979.52
2022-10-01T11:29:21.104Z,979.50
2022-10-01T11:30:21.104Z,979.53
2022-10-01T11:31:21.135Z,979.58
2022-10-01T11:32:21.090Z,979.49
2022-10-01T11:33:21.056Z,979.51
2022-10-01T11:34:21.046Z,979.54
2022-10-01T11:35:21.150Z,979.69
2022-10-01T11:36:21.024Z,979.61
2022-10-01T11:37:21.016Z,979.55
2022-10-01T11:38:21.010Z,979.53
2022-10-01T11:39:20.998Z,979.60
2022-10-01T11:40:21.024Z,979.56
2022-10-01T11:41:20.973Z,979.59
2022-10-01T11:42:20.961Z,979.50
2022-10-01T11:43:20.978Z,979.53
2022-10-01T11:44:20.941Z,979.50
2022-10-01T11:45:20.944Z,979.54
2022-10-01T11:46:20.964Z,979.57
2022-10-01T11:47:20.916Z,979.49
2022-10-01T11:48:20.922Z,979.46
2022-10-01T11:49:20.893Z,979.47
2022-10-01T11:50:20.892Z,979.44
2022-10-01T11:51:20.872Z,979.43
2022-10-01T11:52:20.871Z,979.47
2022-10-01T11:53:20.866Z,979.48
2022-10-01T11:54:20.840Z,979.52
2022-10-01T11:55:20.846Z,979.44
2022-10-01T11:56:20.820Z,979.47
2022-10-01T11:57:20.808Z,979.46
2022-10-01T11:58:20.800Z,979.47
2022-10-01T11:59:20.790Z,979.45
2022-10-01T12:00:24.107Z,979.54
2022-10-01T12:01:21.765Z,979.42
2022-10-01T12:02:20.803Z,979.43
2022-10-01T12:03:20.897Z,979.44
2022-10-01T12:04:20.770Z,979.40
2022-10-01T12:05:20.913Z,979.46
2022-10-01T12:06:25.058Z,979.43
2022-10-01T12:07:21.703Z,979.34
2022-10-01T12:08:20.698Z,979.31
2022-10-01T12:09:20.684Z,979.32
2022-10-01T12:10:20.689Z,979.45
2022-10-01T12:11:20.662Z,979.36
2022-10-01T12:12:20.664Z,979.46
2022-10-01T12:13:20.648Z,979.47
2022-10-01T12:14:20.634Z,979.54
2022-10-01T12:15:20.640Z,979.43
2022-10-01T12:16:20.690Z,979.38
2022-10-01T12:17:20.600Z,979.44
2022-10-01T12:18:20.589Z,979.40
2022-10-01T12:19:20.587Z,979.50
2022-10-01T12:20:20.641Z,979.45
2022-10-01T12:21:20.560Z,979.38
2022-10-01T12:22:24.390Z,979.42
2022-10-01T12:23:20.541Z,979.44
2022-10-01T12:24:20.526Z,979.47
2022-10-01T12:25:20.534Z,979.50
2022-10-01T12:26:20.505Z,979.52
2022-10-01T12:27:20.500Z,979.40
2022-10-01T12:28:20.562Z,979.47